Time;durP1;ratioP1;P1;durP2;ratioP2;P2;SDS_P1;SDS_P2;PMS_P1;PMS_P2;Temp;Humidity;BMP_temperature;BMP_pressure;BME280_temperature;BME280_humidity;BME280_pressure;Samples;Min_cycle;Max_cycle;Signal;HPM_P1;HPM_P2
2023/04/25 00:08:28;;;;;;;12.20;9.90;;;13.70;99.90;;;;;;4861182;29;20102;-76
2023/04/25 00:10:57;;;;;;;12.80;9.07;;;13.60;99.90;;;;;;4850840;29;20220;-74
2023/04/25 00:13:41;;;;;;;11.27;8.10;;;13.70;99.90;;;;;;4853685;29;20074;-76
2023/04/25 00:16:35;;;;;;;13.20;8.68;;;13.70;99.90;;;;;;4815157;29;20077;-74
2023/04/25 00:19:40;;;;;;;15.15;10.00;;;13.80;99.90;;;;;;4844698;29;20587;-76
2023/04/25 00:22:54;;;;;;;14.57;10.13;;;13.80;99.90;;;;;;4828303;29;20491;-76
2023/04/25 00:28:55;;;;;;;16.70;9.93;;;13.30;99.90;;;;;;4851229;29;20045;-76
2023/04/25 00:31:56;;;;;;;12.63;9.00;;;13.60;99.90;;;;;;4878627;29;20159;-76
2023/04/25 00:35:04;;;;;;;13.63;9.52;;;13.80;99.90;;;;;;4882243;29;20064;-74
2023/04/25 00:38:06;;;;;;;15.70;9.20;;;13.90;99.90;;;;;;4859169;29;20076;-76
2023/04/25 00:40:55;;;;;;;14.80;9.27;;;13.50;99.90;;;;;;4881093;29;20084;-79
2023/04/25 00:43:45;;;;;;;21.77;11.02;;;13.50;99.90;;;;;;4843373;29;20081;-75
2023/04/25 00:46:44;;;;;;;13.55;10.07;;;13.40;99.90;;;;;;5270787;23;20057;-74
2023/04/25 00:49:48;;;;;;;14.90;10.70;;;12.80;99.90;;;;;;4861232;29;20084;-75
2023/04/25 00:52:25;;;;;;;15.05;10.80;;;12.50;99.90;;;;;;4859064;29;20057;-76
2023/04/25 00:54:52;;;;;;;14.48;10.73;;;12.50;99.90;;;;;;4867285;29;20060;-76
2023/04/25 00:57:30;;;;;;;15.45;11.23;;;12.60;99.90;;;;;;5026586;23;20127;-77
2023/04/25 01:00:30;;;;;;;15.73;10.18;;;12.70;99.90;;;;;;4851817;29;20066;-77
2023/04/25 01:03:19;;;;;;;15.52;9.77;;;13.00;99.90;;;;;;4828205;29;20073;-77
2023/04/25 01:08:57;;;;;;;15.57;9.88;;;13.50;99.90;;;;;;5111861;23;20052;-75
2023/04/25 01:12:14;;;;;;;13.65;9.90;;;13.20;99.90;;;;;;4893575;29;20048;-76
2023/04/25 01:14:57;;;;;;;12.32;9.45;;;13.40;99.90;;;;;;4880650;29;20057;-75
2023/04/25 01:17:31;;;;;;;13.15;9.80;;;13.50;99.90;;;;;;4894890;29;20424;-75
2023/04/25 01:20:32;;;;;;;11.63;8.57;;;13.60;99.90;;;;;;4872855;29;20045;-76
2023/04/25 01:24:33;;;;;;;11.73;9.02;;;13.50;99.90;;;;;;4888909;29;20081;-74
2023/04/25 01:27:56;;;;;;;12.82;9.32;;;13.50;99.90;;;;;;4886118;29;20081;-75
2023/04/25 01:31:20;;;;;;;15.13;9.60;;;13.50;99.90;;;;;;4893965;29;20112;-78
2023/04/25 01:34:44;;;;;;;12.40;9.57;;;13.40;99.90;;;;;;4898926;29;20049;-77
2023/04/25 01:37:24;;;;;;;12.57;9.18;;;13.40;99.90;;;;;;4880655;29;20300;-76
2023/04/25 01:40:26;;;;;;;16.65;11.60;;;13.40;99.90;;;;;;4881179;29;20056;-74
2023/04/25 01:47:04;;;;;;;15.70;10.18;;;13.50;99.90;;;;;;4893991;29;20388;-76
2023/04/25 01:49:31;;;;;;;17.25;11.18;;;13.40;99.90;;;;;;4907357;29;20083;-77
2023/04/25 01:51:58;;;;;;;17.85;11.23;;;13.20;99.90;;;;;;4899080;29;20072;-75
2023/04/25 01:54:33;;;;;;;14.52;11.00;;;13.10;99.90;;;;;;4898672;29;20057;-76
2023/04/25 01:58:48;;;;;;;14.68;10.43;;;13.10;99.90;;;;;;4891302;29;20036;-77
2023/04/25 02:02:12;;;;;;;;;;;13.00;99.90;;;;;;4909610;29;20059;-76
2023/04/25 02:04:40;;;;;;;17.20;10.93;;;12.90;99.90;;;;;;4900680;29;19927;-74
2023/04/25 02:07:15;;;;;;;12.38;9.73;;;13.00;99.90;;;;;;4893527;29;20121;-74
2023/04/25 02:10:18;;;;;;;13.63;9.35;;;13.10;99.90;;;;;;4880670;29;20096;-79
2023/04/25 02:13:05;;;;;;;13.25;9.25;;;13.10;99.90;;;;;;4850220;29;20132;-75
2023/04/25 02:15:37;;;;;;;11.98;8.60;;;13.00;99.90;;;;;;4883727;29;20045;-74
2023/04/25 02:18:29;;;;;;;14.43;8.65;;;13.00;99.90;;;;;;4900246;29;20053;-77
2023/04/25 02:21:31;;;;;;;11.68;8.48;;;12.90;99.90;;;;;;4887860;29;20049;-75
2023/04/25 02:24:17;;;;;;;10.23;7.78;;;12.80;99.90;;;;;;4898709;29;20048;-74
2023/04/25 02:32:34;;;;;;;12.13;7.32;;;12.50;99.90;;;;;;5258088;23;20053;-80
2023/04/25 02:35:06;;;;;;;10.57;7.85;;;12.30;99.90;;;;;;4879587;29;20049;-79
2023/04/25 02:40:55;;;;;;;9.95;7.93;;;12.30;99.90;;;;;;4774694;27;19923;-77
2023/04/25 02:43:37;;;;;;;10.57;7.95;;;12.40;99.90;;;;;;4841135;29;20067;-78
2023/04/25 02:46:20;;;;;;;10.27;7.82;;;12.40;99.90;;;;;;4860522;29;20069;-75
2023/04/25 02:49:03;;;;;;;12.20;8.18;;;12.30;99.90;;;;;;4855652;29;20486;-76
2023/04/25 02:51:45;;;;;;;12.32;7.40;;;12.40;99.90;;;;;;4861373;29;20064;-75
2023/04/25 02:54:12;;;;;;;10.93;7.88;;;12.50;99.90;;;;;;4882874;29;20061;-80
2023/04/25 02:57:15;;;;;;;11.55;8.07;;;12.60;99.90;;;;;;4845614;29;20102;-75
2023/04/25 02:59:59;;;;;;;11.43;7.88;;;12.70;99.90;;;;;;4870901;29;20052;-73
2023/04/25 03:02:28;;;;;;;13.52;7.93;;;12.60;99.90;;;;;;4869434;29;20050;-74
2023/04/25 03:04:56;;;;;;;10.80;7.95;;;12.80;99.90;;;;;;4888586;29;20098;-78
2023/04/25 03:07:48;;;;;;;11.25;7.78;;;12.80;99.90;;;;;;4873830;29;20047;-73
2023/04/25 03:10:20;;;;;;;10.60;7.47;;;12.70;99.90;;;;;;4854941;29;20452;-75
2023/04/25 03:16:12;;;;;;;9.65;7.65;;;12.70;99.90;;;;;;4864220;27;20041;-74
2023/04/25 03:18:57;;;;;;;13.65;8.10;;;12.60;99.90;;;;;;4852991;29;20086;-81
2023/04/25 03:21:39;;;;;;;10.65;7.40;;;12.70;99.90;;;;;;4851974;29;20095;-74
2023/04/25 03:24:07;;;;;;;9.90;8.00;;;12.80;99.90;;;;;;4873051;29;20045;-74
2023/04/25 03:26:36;;;;;;;11.25;8.07;;;12.80;99.90;;;;;;4871311;29;20078;-75
2023/04/25 03:29:28;;;;;;;13.60;8.43;;;12.90;99.90;;;;;;4892714;29;20052;-77
2023/04/25 03:31:55;;;;;;;11.52;7.80;;;12.90;99.90;;;;;;4872149;29;20057;-76
2023/04/25 03:34:46;;;;;;;12.25;7.93;;;12.80;99.90;;;;;;4868837;29;20398;-74
2023/04/25 03:37:59;;;;;;;12.35;8.60;;;12.90;99.90;;;;;;4870300;29;20069;-74
2023/04/25 03:40:59;;;;;;;12.18;8.80;;;12.90;99.90;;;;;;4890196;29;20123;-77
2023/04/25 03:43:34;;;;;;;11.40;8.73;;;12.80;99.90;;;;;;4869754;29;20069;-73
2023/04/25 03:46:26;;;;;;;10.23;7.90;;;12.80;99.90;;;;;;4877755;29;20060;-74
2023/04/25 03:49:02;;;;;;;12.07;9.15;;;12.70;99.90;;;;;;4862046;29;20402;-76
2023/04/25 03:52:04;;;;;;;10.32;7.97;;;12.80;99.90;;;;;;4874461;29;20073;-76
2023/04/25 03:56:03;;;;;;;11.82;8.00;;;12.90;99.90;;;;;;4883174;23;20223;-74
2023/04/25 03:58:58;;;;;;;12.73;8.02;;;12.90;99.90;;;;;;4870075;29;20060;-74
2023/04/25 04:01:25;;;;;;;11.18;8.00;;;12.80;99.90;;;;;;4868616;29;20026;-74
2023/04/25 04:03:59;;;;;;;12.77;8.57;;;12.70;99.90;;;;;;4850790;29;20504;-74
2023/04/25 04:07:17;;;;;;;12.35;8.80;;;12.80;99.90;;;;;;4873474;29;20056;-75
2023/04/25 04:09:44;;;;;;;12.07;8.70;;;12.70;99.90;;;;;;4875247;29;20113;-73
2023/04/25 04:12:18;;;;;;;13.38;9.23;;;12.70;99.90;;;;;;4867803;29;20080;-76
2023/04/25 04:18:38;;;;;;;13.77;8.80;;;12.70;99.90;;;;;;4947817;24;20045;-76
2023/04/25 04:21:48;;;;;;;15.87;10.40;;;12.70;99.90;;;;;;5185480;23;20034;31
2023/04/25 04:24:47;;;;;;;15.85;10.68;;;12.70;99.90;;;;;;4860889;29;20109;-72
2023/04/25 04:27:58;;;;;;;15.25;9.77;;;12.60;99.90;;;;;;4865963;29;20054;-77
2023/04/25 04:31:32;;;;;;;18.17;11.18;;;12.70;99.90;;;;;;4871398;29;20125;-74
2023/04/25 04:34:49;;;;;;;19.42;11.55;;;12.70;99.90;;;;;;4865854;29;20050;-75
2023/04/25 04:38:44;;;;;;;16.33;10.75;;;12.80;99.90;;;;;;4862090;29;20069;-75
2023/04/25 04:41:22;;;;;;;15.82;11.10;;;12.70;99.90;;;;;;4855941;29;20054;-76
2023/04/25 04:44:08;;;;;;;20.10;12.80;;;12.80;99.90;;;;;;4844470;29;20117;-74
2023/04/25 04:47:50;;;;;;;15.30;10.13;;;12.90;99.90;;;;;;5027696;23;20049;-72
2023/04/25 04:50:45;;;;;;;13.10;9.85;;;13.00;99.90;;;;;;4857377;29;20049;-78
2023/04/25 04:54:14;;;;;;;13.30;10.18;;;13.10;99.90;;;;;;4836995;29;20037;-77
2023/04/25 04:59:59;;;;;;;50.72;33.97;;;13.20;99.90;;;;;;4988989;24;20057;-77
2023/04/25 05:02:32;;;;;;;51.75;36.10;;;13.10;99.90;;;;;;4874522;29;20055;-77
2023/04/25 05:05:19;;;;;;;34.58;24.00;;;13.00;99.90;;;;;;4888517;29;20057;-76
2023/04/25 05:07:47;;;;;;;48.42;33.33;;;13.10;99.90;;;;;;4887987;29;20069;-75
2023/04/25 05:10:15;;;;;;;52.65;34.38;;;13.30;99.90;;;;;;4881067;29;20101;-75
2023/04/25 05:13:17;;;;;;;24.75;16.92;;;13.40;99.90;;;;;;4844228;29;20062;-75
2023/04/25 05:16:31;;;;;;;86.65;53.03;;;13.60;99.90;;;;;;4869721;29;20065;-75
2023/04/25 05:19:08;;;;;;;142.90;81.10;;;13.70;99.90;;;;;;4867824;29;20045;-76
2023/04/25 05:21:35;;;;;;;29.25;19.63;;;13.70;99.90;;;;;;4886179;29;20124;-75
2023/04/25 05:24:19;;;;;;;20.38;13.15;;;13.70;99.90;;;;;;4860714;29;20056;-76
2023/04/25 05:29:47;;;;;;;23.60;13.18;;;13.70;99.90;;;;;;4706365;27;20058;-75
2023/04/25 05:36:08;;;;;;;22.52;13.98;;;14.20;99.90;;;;;;4844368;29;20054;-76
2023/04/25 05:39:46;;;;;;;21.00;11.90;;;14.00;99.90;;;;;;4855726;29;20056;-77
2023/04/25 05:43:05;;;;;;;18.90;11.57;;;14.20;99.90;;;;;;4856210;29;20120;-76
2023/04/25 05:46:02;;;;;;;19.50;11.43;;;14.10;99.90;;;;;;4836312;29;20054;-77
2023/04/25 05:48:41;;;;;;;15.23;11.43;;;14.00;99.90;;;;;;4820411;29;20070;-78
2023/04/25 05:51:35;;;;;;;13.20;10.93;;;14.20;99.90;;;;;;4842134;29;20106;-77
2023/04/25 05:54:09;;;;;;;135.15;82.32;;;14.10;99.90;;;;;;4874412;23;20082;-76
2023/04/25 05:57:05;;;;;;;160.02;99.97;;;14.30;99.90;;;;;;4859824;29;20053;-76
2023/04/25 06:00:10;;;;;;;39.25;27.73;;;14.50;99.90;;;;;;4956393;23;20065;-73
2023/04/25 06:02:38;;;;;;;23.92;15.57;;;14.40;99.90;;;;;;4854052;29;20085;-78
2023/04/25 06:05:09;;;;;;;21.80;14.48;;;14.20;99.90;;;;;;4849471;29;20046;-75
2023/04/25 06:07:50;;;;;;;21.80;12.48;;;14.10;99.90;;;;;;4824444;29;20122;-72
2023/04/25 06:10:23;;;;;;;19.00;12.95;;;14.00;99.90;;;;;;4853214;29;20061;-79
2023/04/25 06:13:12;;;;;;;21.40;13.07;;;14.00;99.90;;;;;;4826677;29;20050;-77
2023/04/25 06:16:10;;;;;;;24.50;14.82;;;14.00;99.90;;;;;;4865646;29;20045;-78
2023/04/25 06:18:57;;;;;;;19.38;13.63;;;14.00;99.90;;;;;;4848902;29;20562;-73
2023/04/25 06:21:24;;;;;;;21.90;14.38;;;13.80;99.90;;;;;;4855083;29;20073;-74
2023/04/25 06:23:52;;;;;;;24.83;14.50;;;13.70;99.90;;;;;;4843922;29;20033;-74
2023/04/25 06:26:19;;;;;;;19.75;13.98;;;13.90;99.90;;;;;;4837857;29;20095;-75
2023/04/25 06:29:02;;;;;;;25.30;14.75;;;14.10;99.90;;;;;;4871385;29;20069;-76
2023/04/25 06:31:33;;;;;;;24.33;14.70;;;14.20;99.90;;;;;;4860912;29;20054;-74
2023/04/25 06:34:03;;;;;;;26.00;15.45;;;14.40;99.90;;;;;;4855892;29;20058;-74
2023/04/25 06:37:01;;;;;;;23.67;14.10;;;14.30;99.90;;;;;;4850559;29;20083;-75
2023/04/25 06:40:11;;;;;;;21.48;13.60;;;14.30;99.90;;;;;;4862412;29;20030;-76
2023/04/25 06:43:04;;;;;;;21.17;13.73;;;14.20;99.90;;;;;;4849578;29;20107;-75
2023/04/25 06:45:36;;;;;;;22.60;13.77;;;14.20;99.90;;;;;;4853024;29;20073;-74
2023/04/25 06:48:05;;;;;;;24.70;14.55;;;14.10;99.90;;;;;;4824195;29;20059;-77
2023/04/25 06:50:47;;;;;;;24.00;14.57;;;13.80;99.90;;;;;;4829206;29;20051;-76
2023/04/25 06:53:15;;;;;;;22.65;14.52;;;13.90;99.90;;;;;;4856119;29;20070;-74
2023/04/25 06:55:47;;;;;;;26.23;14.00;;;14.00;99.90;;;;;;4849828;29;20054;-73
2023/04/25 06:58:31;;;;;;;24.52;13.30;;;14.20;99.90;;;;;;4858506;29;20042;-75
2023/04/25 07:01:04;;;;;;;24.42;14.07;;;14.30;99.90;;;;;;4839061;29;20094;-74
2023/04/25 07:03:32;;;;;;;19.73;12.70;;;14.30;99.90;;;;;;4847245;29;20062;-73
2023/04/25 07:06:00;;;;;;;21.10;12.77;;;14.50;99.90;;;;;;4851051;29;20039;-76
2023/04/25 07:08:33;;;;;;;19.50;12.57;;;14.40;99.90;;;;;;4837834;29;20088;-77
2023/04/25 07:11:15;;;;;;;20.35;12.88;;;14.50;99.90;;;;;;4834188;29;20140;-74
2023/04/25 07:14:08;;;;;;;17.77;11.85;;;14.40;99.90;;;;;;4859695;29;20062;-79
2023/04/25 07:16:56;;;;;;;20.30;10.82;;;14.60;99.90;;;;;;4851157;29;20038;-74
2023/04/25 07:19:43;;;;;;;17.55;10.15;;;14.70;99.90;;;;;;4828310;29;20588;-74
2023/04/25 07:22:27;;;;;;;17.98;11.00;;;14.90;99.90;;;;;;4824888;29;20053;-74
2023/04/25 07:24:55;;;;;;;18.98;12.43;;;15.00;99.90;;;;;;4831084;29;20061;-74
2023/04/25 07:27:22;;;;;;;20.85;12.75;;;15.10;99.90;;;;;;4856419;29;20057;-73
2023/04/25 07:29:50;;;;;;;17.30;11.60;;;15.20;99.90;;;;;;4854588;29;20056;-74
2023/04/25 07:32:41;;;;;;;20.50;12.45;;;15.20;99.90;;;;;;4849856;29;20121;-78
2023/04/25 07:36:07;;;;;;;18.08;11.52;;;15.30;99.90;;;;;;4846086;29;20124;-74
2023/04/25 07:39:21;;;;;;;18.10;10.45;;;15.50;99.90;;;;;;5358378;24;20025;-78
2023/04/25 07:41:49;;;;;;;15.57;9.43;;;15.70;99.90;;;;;;4857207;29;20061;-72
2023/04/25 07:44:18;;;;;;;17.88;11.02;;;15.80;99.90;;;;;;4853826;29;20053;-73
2023/04/25 07:46:45;;;;;;;15.50;9.38;;;16.00;99.90;;;;;;4827514;29;20410;-75
2023/04/25 07:49:19;;;;;;;14.80;9.77;;;16.40;99.90;;;;;;4828036;29;20082;-76
2023/04/25 07:52:05;;;;;;;17.40;8.85;;;16.70;99.90;;;;;;4858921;29;20122;-74
2023/04/25 07:54:43;;;;;;;12.95;8.02;;;16.80;99.90;;;;;;4854743;29;20062;-77
2023/04/25 07:57:14;;;;;;;18.02;7.88;;;16.80;99.90;;;;;;4859308;29;20118;-76
2023/04/25 07:59:45;;;;;;;13.02;7.75;;;16.80;99.90;;;;;;4856466;29;20064;-74
2023/04/25 08:02:15;;;;;;;10.40;6.57;;;16.80;99.90;;;;;;4827307;29;20125;-76
2023/04/25 08:05:11;;;;;;;10.73;6.75;;;16.90;99.90;;;;;;4821223;29;20085;-79
2023/04/25 08:07:55;;;;;;;10.55;5.95;;;17.00;99.90;;;;;;4830566;29;20043;-80
2023/04/25 08:11:01;;;;;;;9.75;6.30;;;17.00;99.90;;;;;;4835307;29;20053;-75
2023/04/25 08:13:42;;;;;;;9.57;6.25;;;17.10;99.90;;;;;;4812288;29;20058;-75
2023/04/25 08:16:30;;;;;;;9.93;5.95;;;17.10;99.90;;;;;;4798306;29;20057;-76
2023/04/25 08:19:30;;;;;;;10.38;6.13;;;17.00;99.90;;;;;;4821919;29;20050;-78
2023/04/25 08:22:02;;;;;;;8.63;5.35;;;16.90;99.90;;;;;;4839160;29;20075;-84
2023/04/25 08:24:49;;;;;;;9.85;6.32;;;16.90;99.90;;;;;;4828915;29;20038;-75
2023/04/25 08:27:25;;;;;;;10.07;5.63;;;17.00;99.90;;;;;;4844055;29;20080;-83
2023/04/25 08:30:08;;;;;;;10.18;5.32;;;17.00;99.90;;;;;;4827480;29;20298;-74
2023/04/25 08:32:40;;;;;;;11.77;5.43;;;16.90;99.90;;;;;;4822511;29;20051;-75
2023/04/25 08:35:10;;;;;;;9.93;6.45;;;17.00;99.90;;;;;;4839997;29;20081;-74
2023/04/25 08:37:43;;;;;;;8.73;5.35;;;17.00;99.90;;;;;;4801928;29;20069;-80
2023/04/25 08:41:03;;;;;;;14.73;7.30;;;17.00;99.90;;;;;;4795981;29;20054;-81
2023/04/25 08:44:16;;;;;;;9.27;5.78;;;17.10;99.90;;;;;;4826019;29;20089;-80
2023/04/25 08:47:01;;;;;;;10.57;5.38;;;17.30;99.90;;;;;;4807948;29;20051;-79
2023/04/25 08:50:53;;;;;;;9.52;6.45;;;17.20;99.90;;;;;;4805727;29;20068;-80
2023/04/25 08:54:17;;;;;;;10.38;5.80;;;17.70;99.90;;;;;;4778058;29;20066;-81
2023/04/25 08:57:53;;;;;;;11.10;6.10;;;17.40;99.90;;;;;;4765587;30;20079;-80
2023/04/25 09:00:45;;;;;;;8.38;5.22;;;17.30;99.90;;;;;;4754763;30;20089;-81
2023/04/25 09:03:54;;;;;;;8.73;5.40;;;17.50;99.90;;;;;;4765076;30;20083;-77
2023/04/25 09:07:20;;;;;;;8.45;5.28;;;17.80;99.90;;;;;;4747994;30;20113;-77
2023/04/25 09:10:17;;;;;;;8.73;4.30;;;18.20;99.90;;;;;;4747300;30;20052;-77
2023/04/25 09:13:24;;;;;;;7.60;3.95;;;18.50;99.90;;;;;;4783871;30;20082;-80
2023/04/25 09:16:03;;;;;;;5.47;3.40;;;18.70;99.90;;;;;;4767478;30;20445;-77
2023/04/25 09:18:48;;;;;;;7.28;2.78;;;18.50;99.90;;;;;;4877128;23;20078;-81
2023/04/25 09:21:15;;;;;;;6.60;3.50;;;18.40;99.90;;;;;;4894206;29;20049;-77
2023/04/25 09:27:49;;;;;;;;;;;;;;;;;;;;;
2023/04/25 09:31:43;;;;;;;5.72;3.20;;;18.80;99.90;;;;;;4866476;29;20049;-78
2023/04/25 09:34:41;;;;;;;4.30;2.70;;;18.70;99.90;;;;;;4852549;29;20054;-80
2023/04/25 09:37:30;;;;;;;6.03;2.90;;;18.50;99.90;;;;;;4866861;29;20064;-77
2023/04/25 09:40:39;;;;;;;7.50;3.35;;;18.80;99.90;;;;;;4883829;29;20056;-78
2023/04/25 09:43:24;;;;;;;8.95;3.50;;;19.00;99.90;;;;;;4853275;29;20140;-79
2023/04/25 09:46:12;;;;;;;7.15;3.40;;;19.50;99.60;;;;;;4871935;29;20060;-81
2023/04/25 09:49:06;;;;;;;;;;;19.40;98.00;;;;;;4866075;29;20061;-79
2023/04/25 09:51:59;;;;;;;4.32;2.80;;;19.80;99.60;;;;;;4860090;29;19924;-79
2023/04/25 09:54:28;;;;;;;5.65;2.67;;;20.00;97.00;;;;;;4857390;29;20061;-80
2023/04/25 09:57:13;;;;;;;8.55;2.85;;;19.70;97.70;;;;;;4857123;29;20087;-79
2023/04/25 09:59:57;;;;;;;5.10;3.08;;;20.00;96.90;;;;;;4859799;29;20117;-77
2023/04/25 10:02:50;;;;;;;6.22;2.80;;;20.50;96.30;;;;;;4855027;29;20054;-79
2023/04/25 10:05:46;;;;;;;5.85;2.95;;;20.80;95.20;;;;;;4853603;29;20131;-77
2023/04/25 10:08:45;;;;;;;5.93;2.47;;;20.90;94.50;;;;;;4848315;29;20089;-76
2023/04/25 10:15:24;;;;;;;3.47;2.35;;;21.10;93.10;;;;;;4790075;29;20144;-78
2023/04/25 10:18:07;;;;;;;5.28;2.80;;;21.50;92.40;;;;;;4857076;29;20054;-77
2023/04/25 10:20:58;;;;;;;3.97;2.47;;;21.50;92.00;;;;;;4853248;29;20061;-76
2023/04/25 10:23:35;;;;;;;4.45;2.72;;;21.60;90.70;;;;;;4842821;29;20054;-77
2023/04/25 10:26:33;;;;;;;6.28;2.40;;;21.80;90.60;;;;;;4856479;29;20058;-77
2023/04/25 10:29:41;;;;;;;5.25;2.50;;;22.00;89.20;;;;;;4846212;29;20058;-77
2023/04/25 10:32:33;;;;;;;5.30;2.67;;;22.40;86.50;;;;;;4846394;29;20053;-77
2023/04/25 10:35:35;;;;;;;4.18;2.10;;;22.50;88.10;;;;;;4839236;29;20134;-79
2023/04/25 10:38:40;;;;;;;4.03;2.28;;;22.40;84.90;;;;;;4845309;29;20049;-79
2023/04/25 10:41:23;;;;;;;5.05;2.55;;;22.30;81.00;;;;;;4841500;29;20147;-79
2023/04/25 10:44:17;;;;;;;7.18;2.22;;;21.80;79.70;;;;;;4842861;29;20046;-77
2023/04/25 10:46:51;;;;;;;4.43;2.38;;;22.20;83.20;;;;;;4856353;29;20134;-77
2023/04/25 10:49:40;;;;;;;6.40;2.67;;;22.80;85.00;;;;;;4842414;29;20457;-76
2023/04/25 10:52:12;;;;;;;5.85;2.40;;;22.80;79.10;;;;;;4828006;29;20118;-78
2023/04/25 10:54:46;;;;;;;9.65;2.78;;;22.80;79.60;;;;;;4860567;29;20089;-76
2023/04/25 10:57:42;;;;;;;6.72;2.83;;;22.80;79.50;;;;;;4826275;29;20070;-76
2023/04/25 11:00:26;;;;;;;5.38;2.50;;;22.80;78.80;;;;;;4869891;29;20055;-81
2023/04/25 11:03:08;;;;;;;5.03;2.38;;;21.70;73.90;;;;;;4874443;29;20061;-75
2023/04/25 11:05:55;;;;;;;5.32;2.28;;;21.10;75.20;;;;;;4856996;29;20064;-78
2023/04/25 11:08:49;;;;;;;3.72;1.55;;;21.20;67.80;;;;;;4855683;29;20136;-75
2023/04/25 11:11:31;;;;;;;5.90;2.10;;;21.40;68.30;;;;;;4843013;29;20136;-77
2023/04/25 11:14:00;;;;;;;2.80;1.50;;;21.30;67.40;;;;;;4871405;29;20078;-79
2023/04/25 11:16:28;;;;;;;3.58;1.60;;;21.00;60.10;;;;;;4869665;29;20057;-75
2023/04/25 11:18:58;;;;;;;2.25;1.20;;;21.20;63.40;;;;;;4855858;24;20151;-79
2023/04/25 11:21:27;;;;;;;2.38;1.23;;;20.50;57.90;;;;;;4862906;29;20045;-79
2023/04/25 11:24:00;;;;;;;2.25;1.25;;;20.50;59.10;;;;;;4852630;29;20447;-72
2023/04/25 11:26:32;;;;;;;3.25;1.10;;;20.70;59.00;;;;;;4856311;29;20375;-73
2023/04/25 11:29:07;;;;;;;2.20;1.30;;;20.90;57.20;;;;;;4846222;29;20041;-75
2023/04/25 11:31:45;;;;;;;1.88;1.20;;;20.90;58.40;;;;;;4842796;29;20073;-80
2023/04/25 11:34:24;;;;;;;1.40;1.10;;;20.70;57.70;;;;;;4873054;29;20049;-73
2023/04/25 11:37:02;;;;;;;2.80;1.20;;;20.70;58.30;;;;;;4852015;29;20061;-73
2023/04/25 11:39:30;;;;;;;2.05;1.08;;;20.70;57.70;;;;;;4862190;29;20129;-72
2023/04/25 11:42:05;;;;;;;2.85;1.30;;;20.90;56.50;;;;;;4907881;24;20064;-76
2023/04/25 11:44:40;;;;;;;1.63;1.10;;;20.90;57.10;;;;;;4918583;29;20044;-76
2023/04/25 11:47:10;;;;;;;1.83;1.10;;;20.40;57.90;;;;;;4898831;29;20084;-74
2023/04/25 11:49:54;;;;;;;2.60;1.30;;;20.50;58.70;;;;;;4890164;29;20420;-75
2023/04/25 11:52:26;;;;;;;2.33;1.20;;;20.50;59.30;;;;;;4876728;29;20064;-75
2023/04/25 11:54:56;;;;;;;1.83;1.38;;;20.10;58.30;;;;;;4892330;29;20060;-75
2023/04/25 11:57:31;;;;;;;2.22;1.10;;;20.10;59.80;;;;;;4878625;29;20048;-80
2023/04/25 12:00:43;;;;;;;6.47;1.50;;;20.00;61.00;;;;;;4892113;29;20067;-75
2023/04/25 12:03:36;;;;;;;3.35;1.38;;;20.00;63.00;;;;;;4835689;29;20050;-75
2023/04/25 12:06:05;;;;;;;1.50;1.30;;;19.90;62.40;;;;;;4805695;29;20062;-79
2023/04/25 12:09:07;;;;;;;1.38;1.27;;;19.60;62.70;;;;;;4845803;29;20073;-74
2023/04/25 12:12:14;;;;;;;1.67;1.40;;;19.90;62.90;;;;;;4845620;29;20064;-75
2023/04/25 12:14:52;;;;;;;3.92;1.48;;;20.80;63.00;;;;;;4842738;29;20072;-74
2023/04/25 12:17:40;;;;;;;2.90;1.40;;;20.90;62.70;;;;;;4826962;29;20065;-74
2023/04/25 12:20:15;;;;;;;3.63;1.75;;;20.50;61.60;;;;;;4820294;29;20054;-71
2023/04/25 12:22:49;;;;;;;5.47;1.20;;;21.10;60.20;;;;;;4825061;29;20145;-72
2023/04/25 12:25:45;;;;;;;2.60;1.13;;;21.00;60.70;;;;;;4800356;29;20062;-77
2023/04/25 12:28:20;;;;;;;3.72;1.20;;;20.60;59.50;;;;;;4836863;29;20452;-75
2023/04/25 12:31:05;;;;;;;3.72;1.35;;;20.90;61.50;;;;;;4834535;29;20058;-73
2023/04/25 12:33:50;;;;;;;1.52;1.10;;;20.60;59.40;;;;;;4840190;29;20053;-74
2023/04/25 12:36:26;;;;;;;1.17;1.00;;;20.90;59.70;;;;;;4906441;29;20059;-75
2023/04/25 12:39:21;;;;;;;2.80;1.30;;;21.00;60.50;;;;;;4864233;29;20082;-78
2023/04/25 12:41:53;;;;;;;2.78;1.75;;;21.40;60.10;;;;;;4876186;29;20077;-77
2023/04/25 12:44:25;;;;;;;1.85;1.00;;;20.70;61.10;;;;;;4888015;29;20204;-73
2023/04/25 12:46:55;;;;;;;2.00;1.20;;;21.20;60.90;;;;;;4906504;29;20052;-75
2023/04/25 12:49:30;;;;;;;1.70;1.10;;;21.80;60.00;;;;;;4905115;29;20077;-76
2023/04/25 12:51:58;;;;;;;2.45;1.52;;;21.40;58.00;;;;;;4860845;29;20061;-77
2023/04/25 12:54:26;;;;;;;1.88;1.10;;;21.30;59.30;;;;;;4873296;29;20053;-77
2023/04/25 12:57:20;;;;;;;1.90;0.98;;;21.20;58.30;;;;;;4879359;29;20057;-76
2023/04/25 12:59:48;;;;;;;2.22;1.25;;;20.90;57.90;;;;;;4863528;29;20048;-74
2023/04/25 13:02:16;;;;;;;1.35;0.85;;;20.80;57.50;;;;;;4871116;29;20063;-77
2023/04/25 13:04:51;;;;;;;2.25;1.20;;;20.60;57.70;;;;;;4889331;29;20152;-75
2023/04/25 13:07:21;;;;;;;2.55;1.13;;;20.70;57.80;;;;;;4889127;29;20084;-75
2023/04/25 13:09:52;;;;;;;3.83;1.15;;;23.20;55.80;;;;;;4885462;29;20068;-74
2023/04/25 13:12:22;;;;;;;;;;;24.50;53.80;;;;;;4884597;29;20055;-75
2023/04/25 13:14:56;;;;;;;3.55;1.15;;;22.90;54.60;;;;;;4911065;29;19962;-77
2023/04/25 13:17:30;;;;;;;1.63;0.98;;;21.30;58.00;;;;;;4896852;29;20028;-76
2023/04/25 13:20:01;;;;;;;3.15;1.58;;;20.80;57.60;;;;;;4895972;29;20066;-76
2023/04/25 13:22:28;;;;;;;2.72;1.20;;;20.50;57.10;;;;;;4881740;29;20148;-79
2023/04/25 13:25:31;;;;;;;2.33;1.35;;;20.30;56.90;;;;;;4912092;29;20052;-78
2023/04/25 13:28:40;;;;;;;4.15;1.30;;;20.30;57.70;;;;;;4892890;29;20061;-76
2023/04/25 13:31:15;;;;;;;3.67;1.48;;;20.10;57.50;;;;;;4902255;29;20107;-77
2023/04/25 13:34:08;;;;;;;2.85;1.50;;;20.00;58.50;;;;;;4870970;29;20120;-76
2023/04/25 13:36:57;;;;;;;1.55;1.30;;;20.00;58.50;;;;;;4889732;29;20059;-76
2023/04/25 13:39:42;;;;;;;3.67;1.50;;;20.00;59.00;;;;;;4881110;29;20450;-77
2023/04/25 13:43:03;;;;;;;4.85;1.55;;;20.00;59.30;;;;;;4858407;29;20100;-77
2023/04/25 13:46:11;;;;;;;;;;;20.20;59.20;;;;;;4887809;29;20045;-77
2023/04/25 13:49:17;;;;;;;4.07;1.50;;;20.00;59.70;;;;;;4866998;29;19954;-77
2023/04/25 13:51:46;;;;;;;3.33;2.00;;;20.10;59.80;;;;;;4903172;29;20045;-75
2023/04/25 13:54:23;;;;;;;4.00;1.50;;;20.20;59.80;;;;;;4884944;29;20056;-77
2023/04/25 13:57:07;;;;;;;4.65;2.10;;;20.00;60.20;;;;;;4873468;29;20045;-75
2023/04/25 13:59:40;;;;;;;4.93;1.40;;;19.90;60.80;;;;;;4885664;29;20074;-76
2023/04/25 14:02:27;;;;;;;5.90;1.60;;;19.80;59.80;;;;;;4862636;29;20048;-75
2023/04/25 14:05:05;;;;;;;4.10;1.55;;;19.70;60.90;;;;;;4875136;29;20056;-77
2023/04/25 14:08:02;;;;;;;1.98;1.50;;;19.90;60.90;;;;;;4866316;29;20044;-78
2023/04/25 14:11:15;;;;;;;3.67;1.67;;;19.60;60.80;;;;;;4891102;29;20077;-79
2023/04/25 14:14:09;;;;;;;;;;;19.70;61.00;;;;;;4862979;29;20041;-76
2023/04/25 14:16:48;;;;;;;3.25;1.98;;;19.70;61.60;;;;;;4896177;29;19923;-79
2023/04/25 14:19:45;;;;;;;3.65;1.65;;;19.70;61.80;;;;;;4888119;29;20055;-79
2023/04/25 14:22:59;;;;;;;6.18;1.85;;;19.70;61.90;;;;;;4903689;29;20049;-77
2023/04/25 14:25:55;;;;;;;2.65;1.60;;;19.70;61.80;;;;;;4888062;29;20143;-75
2023/04/25 14:29:01;;;;;;;2.67;1.40;;;19.70;62.80;;;;;;4958383;23;20049;-78
2023/04/25 14:32:12;;;;;;;3.25;1.55;;;19.60;63.50;;;;;;4874554;29;20108;-76
2023/04/25 14:35:08;;;;;;;2.55;1.80;;;19.50;64.00;;;;;;4870677;29;20052;-74
2023/04/25 14:38:02;;;;;;;2.50;1.60;;;19.50;63.30;;;;;;4869614;29;20113;-79
2023/04/25 14:40:43;;;;;;;2.13;1.50;;;19.40;63.10;;;;;;4860078;29;20065;-74
2023/04/25 14:43:11;;;;;;;3.17;1.60;;;19.10;63.80;;;;;;4871459;29;20303;-75
2023/04/25 14:45:38;;;;;;;1.77;1.50;;;19.10;64.50;;;;;;4867758;29;20058;-75
2023/04/25 14:48:15;;;;;;;3.92;1.60;;;18.30;68.80;;;;;;4853747;29;20160;-77
2023/04/25 14:51:12;;;;;;;2.50;1.70;;;17.90;73.30;;;;;;4865149;24;20073;-76
2023/04/25 14:54:41;;;;;;;2.72;1.80;;;17.60;74.40;;;;;;4840450;29;20473;-76
2023/04/25 14:57:55;;;;;;;3.70;2.20;;;17.80;75.00;;;;;;4867238;24;20060;-76
2023/04/25 15:00:55;;;;;;;4.32;1.92;;;18.20;75.00;;;;;;4875178;29;20076;-78
2023/04/25 15:03:47;;;;;;;3.95;2.10;;;18.40;73.60;;;;;;4869777;29;20071;-78
2023/04/25 15:06:36;;;;;;;4.47;2.00;;;18.50;73.50;;;;;;4865415;29;20109;-77
2023/04/25 15:10:10;;;;;;;2.78;1.98;;;18.50;74.40;;;;;;4872886;29;20105;-78
2023/04/25 15:13:24;;;;;;;2.90;1.85;;;18.50;73.00;;;;;;4873189;29;20045;-79
2023/04/25 15:16:34;;;;;;;4.32;1.83;;;18.60;74.70;;;;;;4877627;29;20082;-81
2023/04/25 15:19:40;;;;;;;2.65;1.70;;;18.60;72.70;;;;;;4858122;29;20082;-75